Time;durP1;ratioP1;P1;durP2;ratioP2;P2;SDS_P1;SDS_P2;PMS_P1;PMS_P2;Temp;Humidity;BMP_temperature;BMP_pressure;BME280_temperature;BME280_humidity;BME280_pressure;Samples;Min_cycle;Max_cycle;Signal;HPM_P1;HPM_P2
2022/11/29 00:01:35;;;;;;;14.80;6.60;;;7.80;82.20;;;;;;6213060;23;20181;-78
2022/11/29 00:04:05;;;;;;;15.00;7.33;;;7.80;82.10;;;;;;6209050;23;20175;-77
2022/11/29 00:06:34;;;;;;;15.30;6.93;;;7.80;82.10;;;;;;6213999;23;20187;-79
2022/11/29 00:09:06;;;;;;;14.87;6.73;;;7.70;81.90;;;;;;6213766;23;20487;-80
2022/11/29 00:14:23;;;;;;;15.23;6.77;;;7.70;82.10;;;;;;6213133;23;20186;-77
2022/11/29 00:16:52;;;;;;;14.30;6.40;;;7.80;82.20;;;;;;6212784;23;20171;-79
2022/11/29 00:19:22;;;;;;;15.87;6.73;;;7.70;82.10;;;;;;6212299;23;20699;-78
2022/11/29 00:21:50;;;;;;;14.47;6.80;;;7.70;82.20;;;;;;6213964;23;20171;-79
2022/11/29 00:24:19;;;;;;;13.67;6.73;;;7.70;82.20;;;;;;6213856;23;20593;-77
2022/11/29 00:26:47;;;;;;;15.63;7.20;;;7.70;82.30;;;;;;6214281;23;20199;-77
2022/11/29 00:29:16;;;;;;;13.43;7.10;;;7.70;82.40;;;;;;6214466;23;20175;-79
2022/11/29 00:31:44;;;;;;;14.47;6.73;;;7.70;82.30;;;;;;6213527;23;20241;-78
2022/11/29 00:34:13;;;;;;;14.47;7.10;;;7.70;83.20;;;;;;6213271;23;20175;-78
2022/11/29 00:36:42;;;;;;;16.73;7.33;;;7.80;82.50;;;;;;6214077;23;20171;-76
2022/11/29 00:39:11;;;;;;;13.17;6.63;;;7.80;82.50;;;;;;6214863;23;20171;-76
2022/11/29 00:41:40;;;;;;;15.33;7.00;;;7.70;82.20;;;;;;6214466;23;20210;-78
2022/11/29 00:44:09;;;;;;;14.10;6.47;;;7.70;82.60;;;;;;6214323;23;20181;-77
2022/11/29 00:46:43;;;;;;;19.03;7.20;;;7.70;82.70;;;;;;6213520;23;20179;-77
2022/11/29 00:49:12;;;;;;;14.70;6.73;;;7.70;82.50;;;;;;6213885;23;20175;-77
2022/11/29 00:51:41;;;;;;;14.30;6.87;;;7.70;82.50;;;;;;6212779;23;20199;-77
2022/11/29 00:54:10;;;;;;;16.20;7.63;;;7.60;82.60;;;;;;6211578;23;20206;-77
2022/11/29 00:56:38;;;;;;;14.30;7.33;;;7.70;82.80;;;;;;6210421;23;20208;-77
2022/11/29 00:59:06;;;;;;;13.43;6.57;;;7.70;83.00;;;;;;6210576;23;20198;-79
2022/11/29 01:01:34;;;;;;;15.03;6.70;;;7.70;83.00;;;;;;6213812;23;20175;-78
2022/11/29 01:04:03;;;;;;;15.90;6.93;;;7.70;83.00;;;;;;6212667;23;20262;-79
2022/11/29 01:06:31;;;;;;;16.30;7.47;;;7.80;83.00;;;;;;6212789;23;20512;-78
2022/11/29 01:09:01;;;;;;;14.20;6.90;;;7.80;82.90;;;;;;6212036;23;20706;-77
2022/11/29 01:11:29;;;;;;;19.30;7.40;;;7.80;83.00;;;;;;6213380;23;20178;-78
2022/11/29 01:14:00;;;;;;;12.63;7.63;;;7.80;83.10;;;;;;6213154;23;20229;-78
2022/11/29 01:16:30;;;;;;;14.97;6.57;;;7.80;83.10;;;;;;6212444;23;20527;-77
2022/11/29 01:18:59;;;;;;;15.40;7.20;;;7.80;83.30;;;;;;6212474;23;20507;-78
2022/11/29 01:21:27;;;;;;;17.53;7.57;;;7.90;83.30;;;;;;6213537;23;20171;-80
2022/11/29 01:23:56;;;;;;;17.80;7.97;;;7.90;83.40;;;;;;6212435;23;20175;-79
2022/11/29 01:26:28;;;;;;;16.57;7.33;;;8.00;83.40;;;;;;6213066;23;20241;-80
2022/11/29 01:28:58;;;;;;;16.17;7.60;;;8.00;83.30;;;;;;6213215;23;20166;-76
2022/11/29 01:31:28;;;;;;;15.37;7.53;;;8.00;83.30;;;;;;6212780;23;20214;-79
2022/11/29 01:33:58;;;;;;;17.53;8.23;;;8.00;83.40;;;;;;6212744;23;20179;-80
2022/11/29 01:36:27;;;;;;;17.37;7.40;;;7.90;83.60;;;;;;6212561;23;20191;-79
2022/11/29 01:38:55;;;;;;;16.10;8.30;;;8.00;83.50;;;;;;6212407;23;20225;-78
2022/11/29 01:41:27;;;;;;;18.50;7.87;;;8.10;83.50;;;;;;6212622;23;20206;-79
2022/11/29 01:44:02;;;;;;;13.90;6.87;;;8.00;83.60;;;;;;6212814;23;20163;-78
2022/11/29 01:46:32;;;;;;;17.73;7.57;;;8.10;83.50;;;;;;6211816;23;20183;-78
2022/11/29 01:49:07;;;;;;;17.87;8.40;;;8.10;83.60;;;;;;6211189;23;20159;-77
2022/11/29 01:51:39;;;;;;;13.67;7.53;;;8.10;83.50;;;;;;6212316;23;20198;-79
2022/11/29 01:54:08;;;;;;;16.83;7.73;;;8.10;83.40;;;;;;6212825;23;20167;-79
2022/11/29 01:56:39;;;;;;;18.87;8.07;;;8.20;83.50;;;;;;6211757;23;20171;-77
2022/11/29 01:59:10;;;;;;;20.33;8.57;;;8.20;83.40;;;;;;6210621;23;20167;-79
2022/11/29 02:01:39;;;;;;;15.53;8.33;;;8.20;83.50;;;;;;6211522;23;20546;-79
2022/11/29 02:04:10;;;;;;;17.83;8.23;;;8.20;83.30;;;;;;6212608;23;20175;-78
2022/11/29 02:06:39;;;;;;;17.13;7.90;;;8.10;83.20;;;;;;6210586;23;20175;-78
2022/11/29 02:09:18;;;;;;;17.27;7.87;;;8.20;83.30;;;;;;6214191;23;20261;-78
2022/11/29 02:12:09;;;;;;;23.33;8.57;;;8.20;83.30;;;;;;6214379;23;20163;-77
2022/11/29 02:14:54;;;;;;;15.30;8.47;;;8.20;83.30;;;;;;6211293;23;20159;-79
2022/11/29 02:17:33;;;;;;;19.97;8.83;;;8.10;83.20;;;;;;6214581;23;20182;-78
2022/11/29 02:20:27;;;;;;;13.57;7.30;;;8.10;83.10;;;;;;6212212;23;20469;-79
2022/11/29 02:23:02;;;;;;;16.73;9.07;;;8.10;83.30;;;;;;6148630;23;20387;-77
2022/11/29 02:25:57;;;;;;;16.83;7.20;;;8.10;83.60;;;;;;6214736;23;20229;-79
2022/11/29 02:28:59;;;;;;;16.00;7.50;;;8.10;83.80;;;;;;6213915;23;20225;-77
2022/11/29 02:32:00;;;;;;;18.17;7.50;;;8.10;83.70;;;;;;6209121;23;20179;-78
2022/11/29 02:35:03;;;;;;;14.03;7.27;;;8.20;83.80;;;;;;6213437;23;20162;-76
2022/11/29 02:37:54;;;;;;;16.93;7.63;;;8.20;83.60;;;;;;6214546;23;20167;-77
2022/11/29 02:40:43;;;;;;;16.43;8.37;;;8.20;83.90;;;;;;6214830;23;20164;-77
2022/11/29 02:43:32;;;;;;;24.13;8.20;;;8.20;83.70;;;;;;6212928;23;20593;-79
2022/11/29 02:46:12;;;;;;;19.63;8.23;;;8.20;83.60;;;;;;6214427;23;20160;-78
2022/11/29 02:48:54;;;;;;;17.17;7.90;;;8.20;83.50;;;;;;6214424;23;20193;-80
2022/11/29 02:51:30;;;;;;;15.43;7.23;;;8.20;83.40;;;;;;6213051;23;20199;-78
2022/11/29 02:54:06;;;;;;;20.00;8.57;;;8.20;83.50;;;;;;6213017;23;20159;-78
2022/11/29 02:56:40;;;;;;;17.53;8.50;;;8.20;83.50;;;;;;6213604;23;20224;-77
2022/11/29 02:59:16;;;;;;;15.67;8.80;;;8.20;83.50;;;;;;6213335;23;20159;-76
2022/11/29 03:01:55;;;;;;;15.20;8.30;;;8.20;83.40;;;;;;6212537;23;20191;-78
2022/11/29 03:04:31;;;;;;;16.13;7.10;;;8.30;83.40;;;;;;6213306;23;20667;-78
2022/11/29 03:07:07;;;;;;;17.50;8.40;;;8.20;83.20;;;;;;6213737;23;20159;-79
2022/11/29 03:09:41;;;;;;;17.50;7.83;;;8.20;83.30;;;;;;6213729;23;20162;-78
2022/11/29 03:12:21;;;;;;;15.97;8.10;;;8.10;83.60;;;;;;6212261;23;20592;-76
2022/11/29 03:14:56;;;;;;;17.57;8.40;;;8.10;83.40;;;;;;6213460;23;20159;-76
2022/11/29 03:17:35;;;;;;;17.27;7.90;;;8.10;83.80;;;;;;6213727;23;20588;-78
2022/11/29 03:20:14;;;;;;;20.07;8.80;;;8.20;83.90;;;;;;6212751;23;20203;-79
2022/11/29 03:22:57;;;;;;;20.03;8.10;;;8.20;83.70;;;;;;6212992;23;20604;-79
2022/11/29 03:25:31;;;;;;;19.53;8.77;;;8.10;83.70;;;;;;6212857;23;20159;-77
2022/11/29 03:28:02;;;;;;;23.27;8.97;;;8.00;83.80;;;;;;6211930;23;20226;-78
2022/11/29 03:30:34;;;;;;;21.50;9.00;;;8.10;84.00;;;;;;6213734;23;20222;-78
2022/11/29 03:33:09;;;;;;;18.13;7.80;;;8.10;84.20;;;;;;6213503;23;20198;-78
2022/11/29 03:35:42;;;;;;;22.23;9.30;;;8.10;84.30;;;;;;6214393;23;20213;-79
2022/11/29 03:38:20;;;;;;;18.17;8.37;;;8.10;84.40;;;;;;6213320;23;20159;-76
2022/11/29 03:40:55;;;;;;;24.07;8.87;;;8.10;84.60;;;;;;6212658;23;20213;-80
2022/11/29 03:43:30;;;;;;;17.27;8.80;;;8.10;84.70;;;;;;6213703;23;20162;-80
2022/11/29 03:46:03;;;;;;;21.73;8.43;;;8.10;84.80;;;;;;6213901;23;20159;-79
2022/11/29 03:48:36;;;;;;;18.53;8.97;;;8.10;84.60;;;;;;6211556;23;20225;-77
2022/11/29 03:51:11;;;;;;;24.40;9.87;;;8.10;84.60;;;;;;6211216;23;20203;-77
2022/11/29 03:53:48;;;;;;;21.63;10.50;;;8.10;84.70;;;;;;6212030;23;20437;-77
2022/11/29 03:56:27;;;;;;;18.30;9.33;;;8.20;85.20;;;;;;6213933;23;20566;-76
2022/11/29 03:59:11;;;;;;;19.67;9.70;;;8.10;85.00;;;;;;6211912;23;20596;-78
2022/11/29 04:02:21;;;;;;;24.37;9.47;;;8.10;84.70;;;;;;6212575;23;20159;-78
2022/11/29 04:05:25;;;;;;;19.30;9.03;;;8.10;84.70;;;;;;6212844;23;20383;-79
2022/11/29 04:08:30;;;;;;;18.77;8.53;;;8.10;85.90;;;;;;6213534;23;20217;-78
2022/11/29 04:11:22;;;;;;;18.83;8.23;;;8.20;85.00;;;;;;6203196;23;20182;-78
2022/11/29 04:14:10;;;;;;;20.80;9.17;;;8.20;84.70;;;;;;6211981;23;20182;-79
2022/11/29 04:17:10;;;;;;;22.40;9.80;;;8.20;84.80;;;;;;6212347;23;20462;-77
2022/11/29 04:20:08;;;;;;;21.33;10.25;;;8.10;84.70;;;;;;6210010;23;20715;-79
2022/11/29 04:23:03;;;;;;;18.27;9.33;;;8.10;85.30;;;;;;6139993;23;20175;-80
2022/11/29 04:25:58;;;;;;;20.00;8.83;;;8.00;85.10;;;;;;6213105;23;20166;-78
2022/11/29 04:29:10;;;;;;;19.80;8.80;;;8.00;85.20;;;;;;6212940;23;20179;-79
2022/11/29 04:31:52;;;;;;;19.37;9.07;;;8.10;85.40;;;;;;6087552;23;20332;-81
2022/11/29 04:34:37;;;;;;;22.90;9.33;;;8.10;86.30;;;;;;6088616;23;20166;-79
2022/11/29 04:37:22;;;;;;;22.07;10.00;;;8.10;85.40;;;;;;6179891;23;20174;-77
2022/11/29 04:40:14;;;;;;;16.30;8.43;;;8.10;85.30;;;;;;6212231;23;20182;-79
2022/11/29 04:42:55;;;;;;;18.33;8.67;;;8.00;85.50;;;;;;6212544;23;20182;-79
2022/11/29 04:45:58;;;;;;;19.02;10.23;;;8.10;85.50;;;;;;6210220;23;20406;-78
2022/11/29 04:49:01;;;;;;;24.77;10.13;;;8.10;86.40;;;;;;6212796;23;20197;-78
2022/11/29 04:51:43;;;;;;;21.10;8.70;;;8.10;86.20;;;;;;6212661;23;20203;-78
2022/11/29 04:54:21;;;;;;;23.43;9.90;;;8.10;86.00;;;;;;6213190;23;20159;-79
2022/11/29 04:56:52;;;;;;;23.40;10.70;;;8.10;85.90;;;;;;6211955;23;20379;-79
2022/11/29 04:59:26;;;;;;;22.57;9.70;;;8.10;85.90;;;;;;6213446;23;20370;-79
2022/11/29 05:02:05;;;;;;;18.47;9.63;;;8.20;86.00;;;;;;6211703;23;20163;-77
2022/11/29 05:04:43;;;;;;;23.40;10.10;;;8.20;86.00;;;;;;6212789;23;20159;-77
2022/11/29 05:07:22;;;;;;;23.87;10.37;;;8.10;85.80;;;;;;6213100;23;20156;-81
2022/11/29 05:10:00;;;;;;;24.75;12.10;;;8.10;85.90;;;;;;6211845;23;20399;-80
2022/11/29 05:12:33;;;;;;;23.30;10.93;;;8.10;86.20;;;;;;6211429;23;20159;-77
2022/11/29 05:15:33;;;;;;;21.23;11.23;;;8.00;86.40;;;;;;6212049;23;20667;-78
2022/11/29 05:18:13;;;;;;;18.73;9.93;;;8.10;86.30;;;;;;6187080;23;20685;-79
2022/11/29 05:20:47;;;;;;;19.50;9.67;;;8.10;86.30;;;;;;6212725;23;20483;-78
2022/11/29 05:23:37;;;;;;;24.63;10.70;;;8.10;86.20;;;;;;6212464;23;20233;-78
2022/11/29 05:26:13;;;;;;;21.23;9.47;;;8.10;86.30;;;;;;6212358;23;20163;-80
2022/11/29 05:28:50;;;;;;;21.83;10.27;;;8.10;86.20;;;;;;6212306;23;20175;-78
2022/11/29 05:31:28;;;;;;;23.77;11.03;;;8.10;86.30;;;;;;6212716;23;20187;-79
2022/11/29 05:34:25;;;;;;;20.03;9.93;;;8.10;86.20;;;;;;6209772;23;20159;-81
2022/11/29 05:37:11;;;;;;;22.60;10.37;;;8.10;86.30;;;;;;6210253;23;20508;-79
2022/11/29 05:39:49;;;;;;;20.90;10.03;;;8.00;86.40;;;;;;6212190;23;20585;-80
2022/11/29 05:42:48;;;;;;;25.63;11.17;;;8.00;86.60;;;;;;6212428;23;20593;-77
2022/11/29 05:45:21;;;;;;;21.80;10.20;;;8.00;87.00;;;;;;6208311;23;20205;-78
2022/11/29 05:47:59;;;;;;;21.63;9.50;;;8.10;87.00;;;;;;6212415;23;20166;-79
2022/11/29 05:50:35;;;;;;;21.47;10.43;;;8.00;87.10;;;;;;6213074;23;20163;-78
2022/11/29 05:53:15;;;;;;;22.80;10.40;;;8.10;87.30;;;;;;6214763;23;20159;-78
2022/11/29 05:55:53;;;;;;;21.60;11.53;;;8.00;87.50;;;;;;6215167;23;20163;-80
2022/11/29 05:58:33;;;;;;;22.50;10.23;;;8.00;87.80;;;;;;6214258;23;20187;-80
2022/11/29 06:01:14;;;;;;;22.43;11.60;;;8.00;87.70;;;;;;6212746;23;21023;-78
2022/11/29 06:03:53;;;;;;;20.83;10.10;;;8.00;87.70;;;;;;6212217;23;20163;-79
2022/11/29 06:06:32;;;;;;;20.83;11.13;;;8.10;87.80;;;;;;6212968;23;20210;-76
2022/11/29 06:09:07;;;;;;;24.97;10.20;;;8.10;88.10;;;;;;6212682;23;20175;-79
2022/11/29 06:11:41;;;;;;;22.20;10.77;;;8.10;87.90;;;;;;6214057;23;20166;-79
2022/11/29 06:14:17;;;;;;;25.73;10.63;;;8.00;88.00;;;;;;6211835;23;20531;-78
2022/11/29 06:17:09;;;;;;;24.93;10.20;;;8.00;88.10;;;;;;6211502;23;20694;-77
2022/11/29 06:20:09;;;;;;;22.53;9.83;;;8.00;88.10;;;;;;6213934;23;20156;-78
2022/11/29 06:23:13;;;;;;;25.03;10.83;;;8.10;88.10;;;;;;6188710;23;20278;-77
2022/11/29 06:25:56;;;;;;;24.00;10.27;;;8.10;88.10;;;;;;6190155;23;20174;-78
2022/11/29 06:28:46;;;;;;;22.60;10.73;;;8.10;87.90;;;;;;6212840;23;20532;-78
2022/11/29 06:31:19;;;;;;;24.13;10.83;;;8.20;88.00;;;;;;6214871;23;20163;-76
2022/11/29 06:33:56;;;;;;;21.70;9.83;;;8.20;88.00;;;;;;6214787;23;20162;-76
2022/11/29 06:36:31;;;;;;;26.25;11.95;;;8.20;88.00;;;;;;6214949;23;20387;-78
2022/11/29 06:39:01;;;;;;;22.93;10.67;;;8.30;88.20;;;;;;6214296;23;20190;-77
2022/11/29 06:41:30;;;;;;;23.47;9.77;;;8.30;88.30;;;;;;6215673;23;20171;-77
2022/11/29 06:43:58;;;;;;;24.50;10.40;;;8.20;88.10;;;;;;6213440;23;20225;-77
2022/11/29 06:46:45;;;;;;;23.77;9.93;;;8.30;88.10;;;;;;6215258;23;20481;-77
2022/11/29 06:49:22;;;;;;;20.27;9.47;;;8.30;88.20;;;;;;6214734;23;20233;-78
2022/11/29 06:52:03;;;;;;;24.55;12.00;;;8.30;88.00;;;;;;6212349;23;20387;-77
2022/11/29 06:54:47;;;;;;;24.77;11.47;;;8.30;88.80;;;;;;6214029;23;20210;-76
2022/11/29 06:57:22;;;;;;;28.03;11.13;;;8.30;88.80;;;;;;6214173;23;20163;-76
2022/11/29 07:00:02;;;;;;;26.47;11.67;;;8.40;88.80;;;;;;6210978;23;20478;-75
2022/11/29 07:02:59;;;;;;;25.00;12.63;;;8.40;88.40;;;;;;6210897;23;20379;-76
2022/11/29 07:05:29;;;;;;;25.90;10.70;;;8.40;88.50;;;;;;6215356;23;20159;-76
2022/11/29 07:08:02;;;;;;;27.70;10.63;;;8.40;88.50;;;;;;6214811;23;20175;-77
2022/11/29 07:10:36;;;;;;;21.90;10.43;;;8.50;88.60;;;;;;6215947;23;20206;-78
2022/11/29 07:13:05;;;;;;;22.07;10.37;;;8.40;88.50;;;;;;6215202;23;20159;-79
2022/11/29 07:15:36;;;;;;;26.55;12.25;;;8.50;88.30;;;;;;6213583;23;20917;-78
2022/11/29 07:18:23;;;;;;;23.27;11.17;;;8.50;88.70;;;;;;6212963;23;20221;-76
2022/11/29 07:21:03;;;;;;;24.03;11.57;;;8.50;88.50;;;;;;6214828;23;20152;-77
2022/11/29 07:23:37;;;;;;;26.47;11.67;;;8.50;88.60;;;;;;6213989;23;20166;-79
2022/11/29 07:26:15;;;;;;;26.10;10.77;;;8.50;88.50;;;;;;6215181;23;20163;-78
2022/11/29 07:28:56;;;;;;;24.67;10.77;;;8.60;88.30;;;;;;6213813;23;20156;-79
2022/11/29 07:31:34;;;;;;;21.37;10.50;;;8.50;88.20;;;;;;6215164;23;20160;-77
2022/11/29 07:34:10;;;;;;;24.60;10.67;;;8.60;88.20;;;;;;6213803;23;20163;-79
2022/11/29 07:36:49;;;;;;;20.87;10.97;;;8.60;88.20;;;;;;6216280;23;20182;-77
2022/11/29 07:39:25;;;;;;;26.67;12.50;;;8.60;88.00;;;;;;6213878;23;20379;-78
2022/11/29 07:42:02;;;;;;;27.00;11.20;;;8.60;88.30;;;;;;6214918;23;20510;-79
2022/11/29 07:44:37;;;;;;;25.83;11.90;;;8.60;87.90;;;;;;6213680;23;20194;-77
2022/11/29 07:47:06;;;;;;;23.93;10.77;;;8.60;88.30;;;;;;6215582;23;20221;-77
2022/11/29 07:49:34;;;;;;;24.73;11.82;;;8.60;88.00;;;;;;6214456;23;20911;-75
2022/11/29 07:52:02;;;;;;;23.80;11.23;;;8.60;88.00;;;;;;6214497;23;20199;-77
2022/11/29 07:54:31;;;;;;;21.20;10.43;;;8.50;88.30;;;;;;6213330;23;20179;-77
2022/11/29 07:57:01;;;;;;;23.80;10.93;;;8.50;88.30;;;;;;6216258;23;20237;-75
2022/11/29 07:59:29;;;;;;;22.47;11.57;;;8.60;88.30;;;;;;6215487;23;20171;-77
2022/11/29 08:01:58;;;;;;;24.43;11.20;;;8.60;88.40;;;;;;6214211;23;20182;-76
2022/11/29 08:04:26;;;;;;;25.83;11.70;;;8.60;88.50;;;;;;6214169;23;20182;-76
2022/11/29 08:06:57;;;;;;;22.87;11.37;;;8.60;88.50;;;;;;6215543;23;20172;-76
2022/11/29 08:09:25;;;;;;;22.57;10.60;;;8.70;88.50;;;;;;6214205;23;20159;-75
2022/11/29 08:11:54;;;;;;;26.57;13.07;;;8.70;88.60;;;;;;6214609;23;20179;-75
2022/11/29 08:14:23;;;;;;;30.30;12.00;;;8.70;88.60;;;;;;6214041;23;20210;-77
2022/11/29 08:16:52;;;;;;;28.73;12.90;;;8.80;88.80;;;;;;6214142;23;20175;-76
2022/11/29 08:19:20;;;;;;;26.73;11.57;;;8.80;88.60;;;;;;6215763;23;20182;-77
2022/11/29 08:21:49;;;;;;;25.63;11.73;;;8.80;88.40;;;;;;6214535;23;20175;-81
2022/11/29 08:24:18;;;;;;;26.27;12.53;;;8.80;88.30;;;;;;6213579;23;20499;-79
2022/11/29 08:26:46;;;;;;;23.37;11.30;;;8.70;88.00;;;;;;6215579;23;20234;-79
2022/11/29 08:29:15;;;;;;;26.67;13.07;;;8.80;88.20;;;;;;6211752;23;20687;-77
2022/11/29 08:31:44;;;;;;;27.87;11.93;;;8.70;88.30;;;;;;6215100;23;20214;-77
2022/11/29 08:34:13;;;;;;;25.53;12.13;;;8.80;88.30;;;;;;6215035;23;20175;-77
2022/11/29 08:36:41;;;;;;;28.50;13.10;;;8.80;88.60;;;;;;6213335;23;20636;-78
2022/11/29 08:39:09;;;;;;;27.47;12.57;;;8.90;88.50;;;;;;6214335;23;20229;-78
2022/11/29 08:41:38;;;;;;;34.17;13.23;;;9.00;89.20;;;;;;6214580;23;20206;-76
2022/11/29 08:44:07;;;;;;;27.60;11.67;;;9.10;88.40;;;;;;6214169;23;20325;-78
2022/11/29 08:49:25;;;;;;;26.10;12.97;;;9.20;88.30;;;;;;6175191;23;20175;-78
2022/11/29 08:53:39;;;;;;;31.07;13.87;;;9.20;88.10;;;;;;6213165;23;20199;-78
2022/11/29 08:54:41;;;;;;;27.38;14.45;;;9.30;88.00;;;;;;6211137;23;20418;-80
2022/11/29 08:57:10;;;;;;;28.80;13.83;;;9.30;88.10;;;;;;6212765;23;20175;-79
2022/11/29 08:59:58;;;;;;;29.23;13.43;;;9.20;87.20;;;;;;6213948;23;20198;-81
2022/11/29 09:02:27;;;;;;;25.90;11.57;;;9.30;87.10;;;;;;6215917;23;20548;-79
2022/11/29 09:04:58;;;;;;;30.70;13.60;;;9.40;86.90;;;;;;6214831;23;20171;-78
2022/11/29 09:07:26;;;;;;;32.37;15.60;;;9.50;87.10;;;;;;6211437;23;20426;-78
2022/11/29 09:09:54;;;;;;;26.83;12.77;;;9.50;87.30;;;;;;6214888;23;20209;-77
2022/11/29 09:12:23;;;;;;;26.10;11.87;;;9.50;87.20;;;;;;6212411;23;20624;-78
2022/11/29 09:14:51;;;;;;;25.80;12.37;;;9.60;87.20;;;;;;6214153;23;20175;-77
2022/11/29 09:17:19;;;;;;;35.03;13.83;;;9.60;87.10;;;;;;6215353;23;20218;-77
2022/11/29 09:19:47;;;;;;;26.63;12.77;;;9.70;87.40;;;;;;6212559;23;20391;-78
2022/11/29 09:22:17;;;;;;;25.37;12.27;;;9.80;87.40;;;;;;6215094;23;20841;-76
2022/11/29 09:24:45;;;;;;;23.77;10.67;;;9.80;87.50;;;;;;6208925;23;20258;-78
2022/11/29 09:27:14;;;;;;;26.03;11.77;;;9.90;87.50;;;;;;6211995;23;20162;-78
2022/11/29 09:29:42;;;;;;;21.10;10.30;;;10.00;87.50;;;;;;6209308;23;20647;-79
2022/11/29 09:32:10;;;;;;;22.85;11.05;;;10.00;86.80;;;;;;6212095;23;20429;-78
2022/11/29 09:34:40;;;;;;;21.13;10.83;;;10.00;86.70;;;;;;6213179;23;20198;-76
2022/11/29 09:37:09;;;;;;;20.27;8.83;;;10.10;86.80;;;;;;6212388;23;20233;-79
2022/11/29 09:39:40;;;;;;;18.17;9.17;;;10.00;86.00;;;;;;6212021;23;20179;-77
2022/11/29 09:42:26;;;;;;;20.33;9.63;;;10.00;85.80;;;;;;6211986;23;20656;-78
2022/11/29 09:45:03;;;;;;;19.63;10.88;;;10.00;86.10;;;;;;6210912;23;20418;-80
2022/11/29 09:47:56;;;;;;;19.23;9.50;;;10.00;86.10;;;;;;6212701;23;20839;-78
2022/11/29 09:50:33;;;;;;;18.40;10.17;;;9.90;85.90;;;;;;6211540;23;20179;-78
2022/11/29 09:53:19;;;;;;;20.87;10.07;;;10.00;86.40;;;;;;6210264;23;20159;-76
2022/11/29 09:56:04;;;;;;;15.07;8.10;;;10.00;86.40;;;;;;6210005;23;20191;-77
2022/11/29 09:58:42;;;;;;;19.33;9.60;;;10.00;86.60;;;;;;6211544;23;20437;-77
2022/11/29 10:01:20;;;;;;;13.67;6.93;;;10.10;87.20;;;;;;6211681;23;20155;-76
2022/11/29 10:03:53;;;;;;;11.10;5.17;;;10.10;87.40;;;;;;6212903;23;20160;-76
2022/11/29 10:06:25;;;;;;;11.23;5.27;;;10.10;87.00;;;;;;6211498;23;20160;-75
2022/11/29 10:08:59;;;;;;;10.93;5.10;;;10.10;86.90;;;;;;6213467;23;20214;-77
2022/11/29 10:11:35;;;;;;;12.10;5.23;;;10.20;86.80;;;;;;6211145;23;20229;-76
2022/11/29 10:14:21;;;;;;;11.17;5.17;;;10.10;87.30;;;;;;6212961;23;20233;-76
2022/11/29 10:16:55;;;;;;;10.30;5.10;;;10.10;87.50;;;;;;6210387;23;20962;-77
2022/11/29 10:19:32;;;;;;;8.60;4.77;;;10.10;87.70;;;;;;6210958;23;20164;-77
2022/11/29 10:22:06;;;;;;;11.10;5.07;;;10.20;88.70;;;;;;6210313;23;20627;-76
2022/11/29 10:25:03;;;;;;;10.73;5.30;;;10.20;87.60;;;;;;6186821;23;20407;-77
2022/11/29 10:27:34;;;;;;;8.80;5.10;;;10.20;87.70;;;;;;6175010;23;20736;-76
2022/11/29 10:30:05;;;;;;;9.60;4.83;;;10.20;87.60;;;;;;6176182;23;20241;-76
2022/11/29 10:32:33;;;;;;;9.87;5.43;;;10.20;87.50;;;;;;6182066;23;20718;-76
2022/11/29 10:35:02;;;;;;;9.57;5.30;;;10.20;87.70;;;;;;6181259;23;20202;-76
2022/11/29 10:37:33;;;;;;;10.03;4.80;;;10.20;87.70;;;;;;6181593;23;20344;-76
2022/11/29 10:40:06;;;;;;;8.63;4.83;;;10.10;87.40;;;;;;6181453;23;20234;-77
2022/11/29 10:42:51;;;;;;;10.77;4.90;;;10.10;87.60;;;;;;6181146;23;20164;-75
2022/11/29 10:45:27;;;;;;;10.27;4.70;;;10.10;87.70;;;;;;6181786;23;20175;-76
2022/11/29 10:48:01;;;;;;;11.60;5.13;;;10.10;87.90;;;;;;6180159;23;20164;-76
2022/11/29 10:50:32;;;;;;;11.00;4.50;;;10.10;88.30;;;;;;6181025;23;20504;-76
2022/11/29 10:53:04;;;;;;;10.77;4.90;;;10.10;88.50;;;;;;6177727;23;20203;-77
2022/11/29 10:55:39;;;;;;;11.23;4.80;;;10.10;88.60;;;;;;6178839;23;20600;-77
2022/11/29 10:58:12;;;;;;;9.63;4.93;;;10.10;88.60;;;;;;6181319;23;20164;-77
2022/11/29 11:00:46;;;;;;;10.53;5.23;;;10.10;89.30;;;;;;6181039;23;20156;-77
2022/11/29 11:03:26;;;;;;;9.23;4.40;;;10.10;89.10;;;;;;6180243;23;20160;-78
2022/11/29 11:06:05;;;;;;;11.63;4.73;;;10.10;89.40;;;;;;6183918;23;20188;-78
2022/11/29 11:08:35;;;;;;;10.20;4.33;;;10.10;89.50;;;;;;6183937;23;20160;-77
2022/11/29 11:11:06;;;;;;;10.70;4.90;;;10.00;89.80;;;;;;6178628;23;20254;-76
2022/11/29 11:13:38;;;;;;;9.60;4.87;;;10.00;90.00;;;;;;6183222;23;20269;-76
2022/11/29 11:16:17;;;;;;;11.07;4.80;;;9.90;90.10;;;;;;6182857;23;20160;-77
2022/11/29 11:18:47;;;;;;;8.97;4.87;;;10.00;90.40;;;;;;6184453;23;20160;-77
2022/11/29 11:21:18;;;;;;;9.27;4.40;;;10.00;90.30;;;;;;6184220;23;20188;-76
2022/11/29 11:23:55;;;;;;;9.77;4.97;;;10.10;90.40;;;;;;6181713;23;20190;-77
2022/11/29 11:26:25;;;;;;;9.97;4.90;;;10.10;90.40;;;;;;6203766;23;20217;-78
2022/11/29 11:28:59;;;;;;;9.53;4.10;;;10.10;90.50;;;;;;6212977;23;20171;-76
2022/11/29 11:31:31;;;;;;;10.17;4.73;;;10.10;90.60;;;;;;6212803;23;20183;-77
2022/11/29 11:34:25;;;;;;;7.57;3.77;;;10.00;90.80;;;;;;6212353;23;20209;-77
2022/11/29 11:36:54;;;;;;;6.50;3.37;;;10.00;90.80;;;;;;6212670;23;20186;-79
2022/11/29 11:39:23;;;;;;;8.70;4.13;;;10.00;91.10;;;;;;6213437;23;20167;-77
2022/11/29 11:44:48;;;;;;;7.47;3.83;;;10.00;91.20;;;;;;6215321;23;20222;-77
2022/11/29 11:47:19;;;;;;;7.47;3.83;;;10.00;91.10;;;;;;6210642;23;20623;-76
2022/11/29 11:49:50;;;;;;;6.73;3.40;;;10.00;91.30;;;;;;6214464;23;20194;-77
2022/11/29 11:52:22;;;;;;;7.20;3.83;;;10.10;91.30;;;;;;6211821;23;20674;-77
2022/11/29 11:54:53;;;;;;;7.27;4.03;;;10.10;91.40;;;;;;6212578;23;20185;-76
2022/11/29 11:57:22;;;;;;;8.70;4.13;;;10.00;91.60;;;;;;6212033;23;20155;-77
2022/11/29 11:59:55;;;;;;;6.43;3.17;;;10.00;91.70;;;;;;6213725;23;20706;-76
2022/11/29 12:02:29;;;;;;;7.63;4.07;;;10.00;91.80;;;;;;6210732;23;20158;-78
2022/11/29 12:05:01;;;;;;;8.30;4.43;;;10.00;91.90;;;;;;6212632;23;20388;-78
2022/11/29 12:07:35;;;;;;;7.77;4.00;;;10.10;92.00;;;;;;6214308;23;20159;-76
2022/11/29 12:10:27;;;;;;;9.20;4.30;;;10.10;92.10;;;;;;6210928;23;20258;-76
2022/11/29 12:12:57;;;;;;;6.37;3.70;;;10.10;92.00;;;;;;6213020;23;20576;-77
2022/11/29 12:15:29;;;;;;;8.45;4.45;;;10.10;92.00;;;;;;6210328;23;20914;-77
2022/11/29 12:18:03;;;;;;;7.43;3.70;;;10.20;92.10;;;;;;6214245;23;20155;-78
2022/11/29 12:20:36;;;;;;;6.90;3.70;;;10.10;92.40;;;;;;6212927;23;20506;-79
2022/11/29 12:23:23;;;;;;;6.90;3.80;;;10.10;92.20;;;;;;6213349;23;20159;-78
2022/11/29 12:25:57;;;;;;;10.77;4.50;;;10.10;92.40;;;;;;6211803;23;20195;-79
2022/11/29 12:28:31;;;;;;;6.50;3.53;;;10.10;92.40;;;;;;6210804;23;20563;-78
2022/11/29 12:31:11;;;;;;;5.80;3.30;;;10.10;92.60;;;;;;6210304;23;21083;-77
2022/11/29 12:33:47;;;;;;;7.67;3.73;;;10.10;92.50;;;;;;6210277;23;20197;-78
2022/11/29 12:36:26;;;;;;;5.67;3.17;;;10.10;92.60;;;;;;6212510;23;20666;-77
2022/11/29 12:39:04;;;;;;;6.47;3.50;;;10.00;92.60;;;;;;6212921;23;20159;-78
2022/11/29 12:41:43;;;;;;;6.17;3.17;;;10.00;92.70;;;;;;6210255;23;20163;-77
2022/11/29 12:44:29;;;;;;;7.00;3.77;;;10.10;92.60;;;;;;6209052;23;20500;-77
2022/11/29 12:47:08;;;;;;;8.07;3.77;;;10.10;92.80;;;;;;6211844;23;20159;-78
2022/11/29 12:50:07;;;;;;;7.97;3.67;;;10.10;92.70;;;;;;6212658;23;20683;-78
2022/11/29 12:52:44;;;;;;;7.30;3.57;;;10.10;92.70;;;;;;6209946;23;20403;-77
2022/11/29 12:55:23;;;;;;;8.57;3.50;;;10.00;92.70;;;;;;6210425;23;20158;-78
2022/11/29 12:58:01;;;;;;;6.97;3.80;;;10.10;92.80;;;;;;6208217;23;20163;-77
2022/11/29 13:00:37;;;;;;;4.63;2.60;;;10.10;92.90;;;;;;6210634;23;20499;-76
2022/11/29 13:03:20;;;;;;;6.17;3.20;;;10.10;92.80;;;;;;6212152;23;20526;-78
2022/11/29 13:06:00;;;;;;;7.47;3.13;;;10.10;92.70;;;;;;6210985;23;20166;-77
2022/11/29 13:08:55;;;;;;;8.93;3.70;;;10.10;92.90;;;;;;6210689;23;20457;-77
2022/11/29 13:11:27;;;;;;;7.57;3.30;;;10.10;92.70;;;;;;6213173;23;20662;-77
2022/11/29 13:14:04;;;;;;;5.17;2.73;;;10.20;92.90;;;;;;6209699;23;20183;-78
2022/11/29 13:16:57;;;;;;;10.37;3.73;;;10.10;92.80;;;;;;6211124;23;20205;-78
2022/11/29 13:19:35;;;;;;;8.43;3.27;;;10.10;92.80;;;;;;6209581;23;20159;-77
2022/11/29 13:22:14;;;;;;;5.53;2.80;;;10.20;92.80;;;;;;6210450;23;20163;-79
2022/11/29 13:24:47;;;;;;;7.73;3.40;;;10.20;92.80;;;;;;6205162;23;20159;-78
2022/11/29 13:27:20;;;;;;;5.70;2.90;;;10.20;92.70;;;;;;6210272;23;20247;-77
2022/11/29 13:29:49;;;;;;;5.90;3.57;;;10.20;92.70;;;;;;6206675;23;20535;-77
2022/11/29 13:32:36;;;;;;;5.67;3.03;;;10.10;92.80;;;;;;6209586;23;20199;-77
2022/11/29 13:35:12;;;;;;;7.03;3.57;;;10.20;92.70;;;;;;6209568;23;20555;-77
2022/11/29 13:37:48;;;;;;;6.97;3.60;;;10.10;92.70;;;;;;6211072;23;20604;-77
2022/11/29 13:40:29;;;;;;;7.73;4.07;;;10.10;92.60;;;;;;6209027;23;20181;-75